sensor_id;sensor_type;location;lat;lon;timestamp;P1;durP1;ratioP1;P2;durP2;ratioP2
54849;SDS011;47660;51.334;12.396;2023-10-09T00:01:39;4.82;;;2.30;;
54849;SDS011;47660;51.334;12.396;2023-10-09T00:04:09;3.72;;;2.00;;
54849;SDS011;47660;51.334;12.396;2023-10-09T00:06:36;3.55;;;2.15;;
54849;SDS011;47660;51.334;12.396;2023-10-09T00:09:04;6.97;;;2.58;;
54849;SDS011;47660;51.334;12.396;2023-10-09T00:11:42;2.75;;;2.05;;
54849;SDS011;47660;51.334;12.396;2023-10-09T00:14:09;5.05;;;2.47;;
54849;SDS011;47660;51.334;12.396;2023-10-09T00:16:40;3.78;;;2.45;;
54849;SDS011;47660;51.334;12.396;2023-10-09T00:19:13;3.92;;;2.50;;
54849;SDS011;47660;51.334;12.396;2023-10-09T00:21:42;5.05;;;2.70;;
54849;SDS011;47660;51.334;12.396;2023-10-09T00:24:12;4.15;;;2.55;;
54849;SDS011;47660;51.334;12.396;2023-10-09T00:26:53;4.07;;;2.60;;
54849;SDS011;47660;51.334;12.396;2023-10-09T00:29:36;3.97;;;2.78;;
54849;SDS011;47660;51.334;12.396;2023-10-09T00:32:07;5.53;;;2.60;;
54849;SDS011;47660;51.334;12.396;2023-10-09T00:34:59;4.57;;;2.85;;
54849;SDS011;47660;51.334;12.396;2023-10-09T00:37:44;5.95;;;2.65;;
54849;SDS011;47660;51.334;12.396;2023-10-09T00:40:10;5.22;;;2.45;;
54849;SDS011;47660;51.334;12.396;2023-10-09T00:42:45;4.85;;;2.58;;
54849;SDS011;47660;51.334;12.396;2023-10-09T00:45:12;4.78;;;2.85;;
54849;SDS011;47660;51.334;12.396;2023-10-09T00:47:48;6.35;;;3.15;;
54849;SDS011;47660;51.334;12.396;2023-10-09T00:50:14;4.90;;;2.30;;
54849;SDS011;47660;51.334;12.396;2023-10-09T00:52:45;7.45;;;2.28;;
54849;SDS011;47660;51.334;12.396;2023-10-09T00:55:32;5.72;;;2.92;;
54849;SDS011;47660;51.334;12.396;2023-10-09T00:58:08;3.70;;;2.42;;
54849;SDS011;47660;51.334;12.396;2023-10-09T01:00:37;5.20;;;2.85;;
54849;SDS011;47660;51.334;12.396;2023-10-09T01:03:10;4.93;;;2.63;;
54849;SDS011;47660;51.334;12.396;2023-10-09T01:05:42;7.15;;;2.85;;
54849;SDS011;47660;51.334;12.396;2023-10-09T01:08:28;4.82;;;2.63;;
54849;SDS011;47660;51.334;12.396;2023-10-09T01:11:06;5.50;;;2.55;;
54849;SDS011;47660;51.334;12.396;2023-10-09T01:13:39;4.22;;;2.55;;
54849;SDS011;47660;51.334;12.396;2023-10-09T01:16:18;5.20;;;2.60;;
54849;SDS011;47660;51.334;12.396;2023-10-09T01:18:49;3.97;;;2.33;;
54849;SDS011;47660;51.334;12.396;2023-10-09T01:21:19;5.90;;;2.90;;
54849;SDS011;47660;51.334;12.396;2023-10-09T01:23:49;4.38;;;2.50;;
54849;SDS011;47660;51.334;12.396;2023-10-09T01:26:40;4.85;;;2.97;;
54849;SDS011;47660;51.334;12.396;2023-10-09T01:29:16;4.25;;;2.63;;
54849;SDS011;47660;51.334;12.396;2023-10-09T01:31:44;4.72;;;2.83;;
54849;SDS011;47660;51.334;12.396;2023-10-09T01:37:14;4.80;;;2.72;;
54849;SDS011;47660;51.334;12.396;2023-10-09T01:39:56;4.93;;;2.33;;
54849;SDS011;47660;51.334;12.396;2023-10-09T01:42:45;4.30;;;2.50;;
54849;SDS011;47660;51.334;12.396;2023-10-09T01:45:13;4.80;;;3.05;;
54849;SDS011;47660;51.334;12.396;2023-10-09T01:47:52;4.85;;;2.40;;
54849;SDS011;47660;51.334;12.396;2023-10-09T01:50:21;3.83;;;2.33;;
54849;SDS011;47660;51.334;12.396;2023-10-09T01:52:49;5.25;;;2.30;;
54849;SDS011;47660;51.334;12.396;2023-10-09T01:55:16;5.50;;;2.20;;
54849;SDS011;47660;51.334;12.396;2023-10-09T01:57:58;4.10;;;2.20;;
54849;SDS011;47660;51.334;12.396;2023-10-09T02:00:52;3.05;;;2.28;;
54849;SDS011;47660;51.334;12.396;2023-10-09T02:03:21;4.93;;;2.50;;
54849;SDS011;47660;51.334;12.396;2023-10-09T02:05:50;4.13;;;2.60;;
54849;SDS011;47660;51.334;12.396;2023-10-09T02:08:38;5.15;;;2.80;;
54849;SDS011;47660;51.334;12.396;2023-10-09T02:11:04;6.05;;;2.40;;
54849;SDS011;47660;51.334;12.396;2023-10-09T02:13:29;4.63;;;1.90;;
54849;SDS011;47660;51.334;12.396;2023-10-09T02:15:57;4.57;;;2.10;;
54849;SDS011;47660;51.334;12.396;2023-10-09T02:18:39;4.53;;;2.45;;
54849;SDS011;47660;51.334;12.396;2023-10-09T02:21:17;5.00;;;2.83;;
54849;SDS011;47660;51.334;12.396;2023-10-09T02:26:22;3.75;;;2.10;;
54849;SDS011;47660;51.334;12.396;2023-10-09T02:28:50;4.47;;;1.92;;
54849;SDS011;47660;51.334;12.396;2023-10-09T02:31:29;4.32;;;1.75;;
54849;SDS011;47660;51.334;12.396;2023-10-09T02:34:09;4.13;;;2.53;;
54849;SDS011;47660;51.334;12.396;2023-10-09T02:36:35;4.45;;;2.15;;
54849;SDS011;47660;51.334;12.396;2023-10-09T02:39:07;5.07;;;2.40;;
54849;SDS011;47660;51.334;12.396;2023-10-09T02:41:46;3.75;;;2.20;;
54849;SDS011;47660;51.334;12.396;2023-10-09T02:44:14;2.55;;;1.95;;
54849;SDS011;47660;51.334;12.396;2023-10-09T02:46:40;4.10;;;2.10;;
54849;SDS011;47660;51.334;12.396;2023-10-09T02:49:06;2.97;;;1.88;;
54849;SDS011;47660;51.334;12.396;2023-10-09T02:51:31;2.95;;;2.17;;
54849;SDS011;47660;51.334;12.396;2023-10-09T02:54:06;3.58;;;2.05;;
54849;SDS011;47660;51.334;12.396;2023-10-09T02:56:43;3.47;;;1.75;;
54849;SDS011;47660;51.334;12.396;2023-10-09T02:59:30;4.40;;;2.25;;
54849;SDS011;47660;51.334;12.396;2023-10-09T03:01:55;4.20;;;2.60;;
54849;SDS011;47660;51.334;12.396;2023-10-09T03:04:22;3.80;;;2.45;;
54849;SDS011;47660;51.334;12.396;2023-10-09T03:06:48;3.63;;;2.08;;
54849;SDS011;47660;51.334;12.396;2023-10-09T03:09:18;4.50;;;2.50;;
54849;SDS011;47660;51.334;12.396;2023-10-09T03:11:51;3.33;;;2.10;;
54849;SDS011;47660;51.334;12.396;2023-10-09T03:14:18;3.70;;;2.17;;
54849;SDS011;47660;51.334;12.396;2023-10-09T03:16:51;2.53;;;2.10;;
54849;SDS011;47660;51.334;12.396;2023-10-09T03:19:16;3.25;;;2.17;;
54849;SDS011;47660;51.334;12.396;2023-10-09T03:21:42;3.78;;;2.05;;
54849;SDS011;47660;51.334;12.396;2023-10-09T03:24:07;3.35;;;2.05;;
54849;SDS011;47660;51.334;12.396;2023-10-09T03:26:34;2.45;;;1.90;;
54849;SDS011;47660;51.334;12.396;2023-10-09T03:28:59;4.65;;;2.15;;
54849;SDS011;47660;51.334;12.396;2023-10-09T03:31:31;4.03;;;2.40;;
54849;SDS011;47660;51.334;12.396;2023-10-09T03:33:59;3.10;;;2.30;;
54849;SDS011;47660;51.334;12.396;2023-10-09T03:36:25;4.10;;;2.17;;
54849;SDS011;47660;51.334;12.396;2023-10-09T03:38:54;6.68;;;2.15;;
54849;SDS011;47660;51.334;12.396;2023-10-09T03:41:22;3.33;;;2.15;;
54849;SDS011;47660;51.334;12.396;2023-10-09T03:43:51;2.90;;;2.22;;
54849;SDS011;47660;51.334;12.396;2023-10-09T03:46:16;4.47;;;2.30;;
54849;SDS011;47660;51.334;12.396;2023-10-09T03:48:51;4.30;;;2.22;;
54849;SDS011;47660;51.334;12.396;2023-10-09T03:51:17;3.72;;;2.10;;
54849;SDS011;47660;51.334;12.396;2023-10-09T03:53:49;3.90;;;2.28;;
54849;SDS011;47660;51.334;12.396;2023-10-09T03:56:17;3.58;;;2.30;;
54849;SDS011;47660;51.334;12.396;2023-10-09T03:58:43;4.05;;;2.47;;
54849;SDS011;47660;51.334;12.396;2023-10-09T04:01:19;4.78;;;2.33;;
54849;SDS011;47660;51.334;12.396;2023-10-09T04:03:55;4.10;;;2.35;;
54849;SDS011;47660;51.334;12.396;2023-10-09T04:06:21;4.13;;;2.60;;
54849;SDS011;47660;51.334;12.396;2023-10-09T04:08:47;6.00;;;2.60;;
54849;SDS011;47660;51.334;12.396;2023-10-09T04:11:14;2.95;;;2.13;;
54849;SDS011;47660;51.334;12.396;2023-10-09T04:13:47;4.65;;;2.60;;
54849;SDS011;47660;51.334;12.396;2023-10-09T04:16:14;3.78;;;2.60;;
54849;SDS011;47660;51.334;12.396;2023-10-09T04:18:57;4.50;;;2.47;;
54849;SDS011;47660;51.334;12.396;2023-10-09T04:21:24;3.22;;;2.10;;
54849;SDS011;47660;51.334;12.396;2023-10-09T04:24:06;5.05;;;2.72;;
54849;SDS011;47660;51.334;12.396;2023-10-09T04:26:42;5.00;;;2.20;;
54849;SDS011;47660;51.334;12.396;2023-10-09T04:29:19;5.20;;;2.72;;
54849;SDS011;47660;51.334;12.396;2023-10-09T04:34:25;3.83;;;2.42;;
54849;SDS011;47660;51.334;12.396;2023-10-09T04:36:57;5.65;;;2.53;;
54849;SDS011;47660;51.334;12.396;2023-10-09T04:42:27;6.70;;;2.50;;
54849;SDS011;47660;51.334;12.396;2023-10-09T04:45:02;4.28;;;2.72;;
54849;SDS011;47660;51.334;12.396;2023-10-09T04:47:32;4.43;;;2.53;;
54849;SDS011;47660;51.334;12.396;2023-10-09T04:50:07;4.68;;;2.40;;
54849;SDS011;47660;51.334;12.396;2023-10-09T04:53:00;5.40;;;2.88;;
54849;SDS011;47660;51.334;12.396;2023-10-09T04:55:41;4.82;;;2.50;;
54849;SDS011;47660;51.334;12.396;2023-10-09T04:58:19;5.53;;;3.30;;
54849;SDS011;47660;51.334;12.396;2023-10-09T05:00:51;5.65;;;2.75;;
54849;SDS011;47660;51.334;12.396;2023-10-09T05:03:23;7.63;;;2.80;;
54849;SDS011;47660;51.334;12.396;2023-10-09T05:06:07;6.40;;;2.97;;
54849;SDS011;47660;51.334;12.396;2023-10-09T05:09:00;5.38;;;2.55;;
54849;SDS011;47660;51.334;12.396;2023-10-09T05:11:33;6.90;;;3.10;;
54849;SDS011;47660;51.334;12.396;2023-10-09T05:14:00;5.90;;;3.28;;
54849;SDS011;47660;51.334;12.396;2023-10-09T05:16:37;4.95;;;3.10;;
54849;SDS011;47660;51.334;12.396;2023-10-09T05:19:19;8.57;;;3.05;;
54849;SDS011;47660;51.334;12.396;2023-10-09T05:21:54;5.30;;;2.90;;
54849;SDS011;47660;51.334;12.396;2023-10-09T05:24:23;5.35;;;3.05;;
54849;SDS011;47660;51.334;12.396;2023-10-09T05:26:52;5.00;;;3.08;;
54849;SDS011;47660;51.334;12.396;2023-10-09T05:29:18;5.13;;;2.65;;
54849;SDS011;47660;51.334;12.396;2023-10-09T05:31:54;7.45;;;3.03;;
54849;SDS011;47660;51.334;12.396;2023-10-09T05:34:28;5.32;;;2.83;;
54849;SDS011;47660;51.334;12.396;2023-10-09T05:37:13;5.47;;;3.25;;
54849;SDS011;47660;51.334;12.396;2023-10-09T05:39:53;5.38;;;3.15;;
54849;SDS011;47660;51.334;12.396;2023-10-09T05:42:35;5.50;;;3.45;;
54849;SDS011;47660;51.334;12.396;2023-10-09T05:45:11;5.93;;;2.90;;
54849;SDS011;47660;51.334;12.396;2023-10-09T05:50:23;7.45;;;2.90;;
54849;SDS011;47660;51.334;12.396;2023-10-09T05:52:50;4.38;;;2.80;;
54849;SDS011;47660;51.334;12.396;2023-10-09T05:55:17;7.60;;;3.15;;
54849;SDS011;47660;51.334;12.396;2023-10-09T05:57:49;5.82;;;3.05;;
54849;SDS011;47660;51.334;12.396;2023-10-09T06:00:21;5.20;;;2.83;;
54849;SDS011;47660;51.334;12.396;2023-10-09T06:05:45;6.07;;;3.20;;
54849;SDS011;47660;51.334;12.396;2023-10-09T06:08:28;6.65;;;3.10;;
54849;SDS011;47660;51.334;12.396;2023-10-09T06:11:07;5.78;;;3.10;;
54849;SDS011;47660;51.334;12.396;2023-10-09T06:13:54;5.82;;;3.08;;
54849;SDS011;47660;51.334;12.396;2023-10-09T06:16:33;4.40;;;2.97;;
54849;SDS011;47660;51.334;12.396;2023-10-09T06:19:22;7.20;;;3.17;;
54849;SDS011;47660;51.334;12.396;2023-10-09T06:21:58;7.18;;;2.97;;
54849;SDS011;47660;51.334;12.396;2023-10-09T06:24:43;4.53;;;2.88;;
54849;SDS011;47660;51.334;12.396;2023-10-09T06:27:29;4.72;;;3.03;;
54849;SDS011;47660;51.334;12.396;2023-10-09T06:29:54;9.48;;;3.10;;
54849;SDS011;47660;51.334;12.396;2023-10-09T06:32:39;5.97;;;3.63;;
54849;SDS011;47660;51.334;12.396;2023-10-09T06:35:22;8.13;;;2.95;;
54849;SDS011;47660;51.334;12.396;2023-10-09T06:37:51;7.30;;;3.03;;
54849;SDS011;47660;51.334;12.396;2023-10-09T06:43:18;5.45;;;2.67;;
54849;SDS011;47660;51.334;12.396;2023-10-09T06:45:56;7.68;;;3.38;;
54849;SDS011;47660;51.334;12.396;2023-10-09T06:48:26;9.98;;;3.50;;
54849;SDS011;47660;51.334;12.396;2023-10-09T06:53:34;5.65;;;3.08;;
54849;SDS011;47660;51.334;12.396;2023-10-09T06:56:18;6.53;;;3.70;;
54849;SDS011;47660;51.334;12.396;2023-10-09T06:59:02;6.38;;;3.65;;
54849;SDS011;47660;51.334;12.396;2023-10-09T07:01:33;9.55;;;3.33;;
54849;SDS011;47660;51.334;12.396;2023-10-09T07:04:04;5.47;;;3.30;;
54849;SDS011;47660;51.334;12.396;2023-10-09T07:06:46;7.88;;;3.40;;
54849;SDS011;47660;51.334;12.396;2023-10-09T07:09:12;7.78;;;3.92;;
54849;SDS011;47660;51.334;12.396;2023-10-09T07:11:39;9.45;;;4.22;;
54849;SDS011;47660;51.334;12.396;2023-10-09T07:14:08;6.57;;;3.42;;
54849;SDS011;47660;51.334;12.396;2023-10-09T07:16:56;11.57;;;3.75;;
54849;SDS011;47660;51.334;12.396;2023-10-09T07:19:29;9.32;;;3.83;;
54849;SDS011;47660;51.334;12.396;2023-10-09T07:21:59;7.47;;;3.63;;
54849;SDS011;47660;51.334;12.396;2023-10-09T07:24:28;8.65;;;3.67;;
54849;SDS011;47660;51.334;12.396;2023-10-09T07:27:03;11.63;;;5.03;;
54849;SDS011;47660;51.334;12.396;2023-10-09T07:29:38;5.63;;;3.47;;
54849;SDS011;47660;51.334;12.396;2023-10-09T07:32:13;8.45;;;4.10;;
54849;SDS011;47660;51.334;12.396;2023-10-09T07:34:45;10.10;;;3.88;;
54849;SDS011;47660;51.334;12.396;2023-10-09T07:37:24;6.53;;;3.65;;
54849;SDS011;47660;51.334;12.396;2023-10-09T07:39:55;8.57;;;4.15;;
54849;SDS011;47660;51.334;12.396;2023-10-09T07:42:24;8.52;;;3.60;;
54849;SDS011;47660;51.334;12.396;2023-10-09T07:45:06;9.15;;;4.10;;
54849;SDS011;47660;51.334;12.396;2023-10-09T07:47:54;9.50;;;4.40;;
54849;SDS011;47660;51.334;12.396;2023-10-09T07:50:25;8.90;;;4.07;;
54849;SDS011;47660;51.334;12.396;2023-10-09T07:53:15;5.75;;;3.35;;
54849;SDS011;47660;51.334;12.396;2023-10-09T07:55:44;8.13;;;3.72;;
54849;SDS011;47660;51.334;12.396;2023-10-09T07:58:23;7.22;;;3.85;;
54849;SDS011;47660;51.334;12.396;2023-10-09T08:00:52;7.50;;;4.10;;
54849;SDS011;47660;51.334;12.396;2023-10-09T08:03:40;7.97;;;3.90;;
54849;SDS011;47660;51.334;12.396;2023-10-09T08:06:05;6.90;;;4.13;;
54849;SDS011;47660;51.334;12.396;2023-10-09T08:08:54;8.70;;;4.20;;
54849;SDS011;47660;51.334;12.396;2023-10-09T08:11:31;9.48;;;4.43;;
54849;SDS011;47660;51.334;12.396;2023-10-09T08:14:08;8.13;;;4.30;;
54849;SDS011;47660;51.334;12.396;2023-10-09T08:16:52;10.38;;;4.25;;
54849;SDS011;47660;51.334;12.396;2023-10-09T08:19:36;11.02;;;4.55;;
54849;SDS011;47660;51.334;12.396;2023-10-09T08:22:16;11.02;;;4.75;;
54849;SDS011;47660;51.334;12.396;2023-10-09T08:25:02;8.43;;;3.87;;
54849;SDS011;47660;51.334;12.396;2023-10-09T08:27:28;13.18;;;4.80;;
54849;SDS011;47660;51.334;12.396;2023-10-09T08:29:55;9.95;;;4.72;;
54849;SDS011;47660;51.334;12.396;2023-10-09T08:32:41;10.95;;;4.35;;
54849;SDS011;47660;51.334;12.396;2023-10-09T08:35:11;15.98;;;9.25;;
54849;SDS011;47660;51.334;12.396;2023-10-09T08:37:55;14.00;;;5.50;;
54849;SDS011;47660;51.334;12.396;2023-10-09T08:40:33;14.50;;;5.80;;
54849;SDS011;47660;51.334;12.396;2023-10-09T08:43:23;12.07;;;5.63;;
54849;SDS011;47660;51.334;12.396;2023-10-09T08:48:13;13.07;;;6.03;;
54849;SDS011;47660;51.334;12.396;2023-10-09T08:50:51;11.68;;;4.50;;
54849;SDS011;47660;51.334;12.396;2023-10-09T08:53:20;11.00;;;5.45;;
54849;SDS011;47660;51.334;12.396;2023-10-09T08:55:47;11.48;;;5.93;;
54849;SDS011;47660;51.334;12.396;2023-10-09T08:58:16;9.88;;;4.55;;
54849;SDS011;47660;51.334;12.396;2023-10-09T09:00:55;8.60;;;3.97;;
54849;SDS011;47660;51.334;12.396;2023-10-09T09:03:21;7.97;;;4.35;;
54849;SDS011;47660;51.334;12.396;2023-10-09T09:05:57;9.65;;;4.57;;
54849;SDS011;47660;51.334;12.396;2023-10-09T09:08:26;14.48;;;4.93;;
54849;SDS011;47660;51.334;12.396;2023-10-09T09:11:14;11.38;;;4.60;;
54849;SDS011;47660;51.334;12.396;2023-10-09T09:16:24;12.63;;;5.65;;
54849;SDS011;47660;51.334;12.396;2023-10-09T09:19:00;11.05;;;5.50;;
54849;SDS011;47660;51.334;12.396;2023-10-09T09:21:38;10.18;;;4.68;;
54849;SDS011;47660;51.334;12.396;2023-10-09T09:24:08;8.75;;;4.70;;
54849;SDS011;47660;51.334;12.396;2023-10-09T09:26:56;10.60;;;5.00;;
54849;SDS011;47660;51.334;12.396;2023-10-09T09:32:01;8.75;;;4.63;;
54849;SDS011;47660;51.334;12.396;2023-10-09T09:34:52;7.82;;;4.70;;
54849;SDS011;47660;51.334;12.396;2023-10-09T09:37:30;10.30;;;4.18;;
54849;SDS011;47660;51.334;12.396;2023-10-09T09:40:11;10.13;;;4.82;;
54849;SDS011;47660;51.334;12.396;2023-10-09T09:42:56;7.85;;;4.35;;
54849;SDS011;47660;51.334;12.396;2023-10-09T09:45:29;10.55;;;4.95;;
54849;SDS011;47660;51.334;12.396;2023-10-09T09:48:00;10.48;;;4.63;;
54849;SDS011;47660;51.334;12.396;2023-10-09T09:50:31;10.15;;;4.82;;
54849;SDS011;47660;51.334;12.396;2023-10-09T09:52:57;10.95;;;4.47;;
54849;SDS011;47660;51.334;12.396;2023-10-09T09:55:28;10.38;;;4.90;;
54849;SDS011;47660;51.334;12.396;2023-10-09T09:57:58;12.10;;;5.13;;
54849;SDS011;47660;51.334;12.396;2023-10-09T10:00:26;12.60;;;4.75;;
54849;SDS011;47660;51.334;12.396;2023-10-09T10:03:09;7.85;;;4.53;;
54849;SDS011;47660;51.334;12.396;2023-10-09T10:05:37;12.60;;;4.88;;
54849;SDS011;47660;51.334;12.396;2023-10-09T10:08:07;9.48;;;4.55;;
54849;SDS011;47660;51.334;12.396;2023-10-09T10:10:39;8.90;;;4.93;;
54849;SDS011;47660;51.334;12.396;2023-10-09T10:16:06;9.15;;;4.53;;
54849;SDS011;47660;51.334;12.396;2023-10-09T10:19:01;5.90;;;3.88;;
54849;SDS011;47660;51.334;12.396;2023-10-09T10:21:36;7.53;;;4.40;;
54849;SDS011;47660;51.334;12.396;2023-10-09T10:24:51;11.25;;;4.88;;
54849;SDS011;47660;51.334;12.396;2023-10-09T10:35:16;8.70;;;4.15;;
54849;SDS011;47660;51.334;12.396;2023-10-09T10:37:41;11.55;;;5.40;;
54849;SDS011;47660;51.334;12.396;2023-10-09T10:40:22;11.48;;;4.32;;
54849;SDS011;47660;51.334;12.396;2023-10-09T10:43:04;8.63;;;4.30;;
54849;SDS011;47660;51.334;12.396;2023-10-09T10:46:06;11.57;;;5.10;;
54849;SDS011;47660;51.334;12.396;2023-10-09T10:48:49;7.22;;;4.20;;
54849;SDS011;47660;51.334;12.396;2023-10-09T10:51:45;11.27;;;4.50;;
54849;SDS011;47660;51.334;12.396;2023-10-09T10:54:19;11.05;;;5.13;;
54849;SDS011;47660;51.334;12.396;2023-10-09T10:57:14;9.77;;;4.63;;
54849;SDS011;47660;51.334;12.396;2023-10-09T11:00:09;8.52;;;4.28;;
54849;SDS011;47660;51.334;12.396;2023-10-09T11:02:59;7.03;;;3.78;;
54849;SDS011;47660;51.334;12.396;2023-10-09T11:05:42;10.93;;;4.50;;
54849;SDS011;47660;51.334;12.396;2023-10-09T11:08:10;9.50;;;4.43;;
54849;SDS011;47660;51.334;12.396;2023-10-09T11:10:37;10.88;;;4.68;;
54849;SDS011;47660;51.334;12.396;2023-10-09T11:13:24;12.05;;;4.45;;
54849;SDS011;47660;51.334;12.396;2023-10-09T11:15:58;13.30;;;4.78;;
54849;SDS011;47660;51.334;12.396;2023-10-09T11:18:49;10.98;;;4.68;;
54849;SDS011;47660;51.334;12.396;2023-10-09T11:21:14;9.73;;;4.30;;
54849;SDS011;47660;51.334;12.396;2023-10-09T11:23:40;9.02;;;4.55;;
54849;SDS011;47660;51.334;12.396;2023-10-09T11:26:22;9.60;;;4.68;;
54849;SDS011;47660;51.334;12.396;2023-10-09T11:29:05;9.18;;;4.88;;
54849;SDS011;47660;51.334;12.396;2023-10-09T11:34:28;10.32;;;4.47;;
54849;SDS011;47660;51.334;12.396;2023-10-09T11:37:13;8.05;;;4.65;;
54849;SDS011;47660;51.334;12.396;2023-10-09T11:39:58;9.52;;;4.70;;
54849;SDS011;47660;51.334;12.396;2023-10-09T11:42:26;11.90;;;5.10;;
54849;SDS011;47660;51.334;12.396;2023-10-09T11:45:21;10.60;;;5.05;;
54849;SDS011;47660;51.334;12.396;2023-10-09T11:47:50;9.88;;;5.50;;
54849;SDS011;47660;51.334;12.396;2023-10-09T11:53:15;12.25;;;5.57;;
54849;SDS011;47660;51.334;12.396;2023-10-09T11:55:47;9.88;;;5.05;;
54849;SDS011;47660;51.334;12.396;2023-10-09T11:58:14;13.52;;;5.25;;
54849;SDS011;47660;51.334;12.396;2023-10-09T12:00:54;11.07;;;5.25;;
54849;SDS011;47660;51.334;12.396;2023-10-09T12:03:30;9.20;;;4.97;;
54849;SDS011;47660;51.334;12.396;2023-10-09T12:05:56;10.80;;;5.03;;
54849;SDS011;47660;51.334;12.396;2023-10-09T12:08:23;8.75;;;4.75;;
54849;SDS011;47660;51.334;12.396;2023-10-09T12:10:51;10.30;;;5.28;;
54849;SDS011;47660;51.334;12.396;2023-10-09T12:13:19;9.02;;;4.68;;
54849;SDS011;47660;51.334;12.396;2023-10-09T12:15:47;12.60;;;5.15;;
54849;SDS011;47660;51.334;12.396;2023-10-09T12:18:12;9.45;;;4.85;;
54849;SDS011;47660;51.334;12.396;2023-10-09T12:20:41;9.93;;;4.80;;
54849;SDS011;47660;51.334;12.396;2023-10-09T12:23:07;11.02;;;5.82;;
54849;SDS011;47660;51.334;12.396;2023-10-09T12:25:33;10.05;;;4.57;;
54849;SDS011;47660;51.334;12.396;2023-10-09T12:28:00;9.18;;;4.78;;
54849;SDS011;47660;51.334;12.396;2023-10-09T12:30:28;12.07;;;4.80;;
54849;SDS011;47660;51.334;12.396;2023-10-09T12:32:54;11.50;;;4.93;;
54849;SDS011;47660;51.334;12.396;2023-10-09T12:35:22;11.32;;;4.70;;
54849;SDS011;47660;51.334;12.396;2023-10-09T12:37:49;11.88;;;4.97;;
54849;SDS011;47660;51.334;12.396;2023-10-09T12:40:16;10.25;;;4.93;;
54849;SDS011;47660;51.334;12.396;2023-10-09T12:42:48;12.35;;;5.30;;
54849;SDS011;47660;51.334;12.396;2023-10-09T12:45:14;9.68;;;4.32;;
54849;SDS011;47660;51.334;12.396;2023-10-09T12:47:39;11.60;;;4.82;;
54849;SDS011;47660;51.334;12.396;2023-10-09T12:50:07;7.63;;;4.32;;
54849;SDS011;47660;51.334;12.396;2023-10-09T12:52:38;7.90;;;4.45;;
54849;SDS011;47660;51.334;12.396;2023-10-09T12:55:04;11.63;;;5.22;;
54849;SDS011;47660;51.334;12.396;2023-10-09T12:57:44;10.20;;;5.07;;
54849;SDS011;47660;51.334;12.396;2023-10-09T13:00:09;12.65;;;4.97;;
54849;SDS011;47660;51.334;12.396;2023-10-09T13:02:36;9.82;;;5.07;;
54849;SDS011;47660;51.334;12.396;2023-10-09T13:05:01;11.25;;;5.07;;
54849;SDS011;47660;51.334;12.396;2023-10-09T13:07:29;9.63;;;4.43;;
54849;SDS011;47660;51.334;12.396;2023-10-09T13:09:55;12.07;;;5.20;;
54849;SDS011;47660;51.334;12.396;2023-10-09T13:12:37;8.55;;;4.70;;
54849;SDS011;47660;51.334;12.396;2023-10-09T13:15:08;9.85;;;4.65;;
54849;SDS011;47660;51.334;12.396;2023-10-09T13:17:35;9.55;;;4.93;;
54849;SDS011;47660;51.334;12.396;2023-10-09T13:20:01;11.75;;;5.28;;
54849;SDS011;47660;51.334;12.396;2023-10-09T13:22:30;9.30;;;4.20;;
54849;SDS011;47660;51.334;12.396;2023-10-09T13:24:56;11.38;;;4.50;;
54849;SDS011;47660;51.334;12.396;2023-10-09T13:27:29;7.72;;;4.00;;
54849;SDS011;47660;51.334;12.396;2023-10-09T13:29:59;8.18;;;4.20;;
54849;SDS011;47660;51.334;12.396;2023-10-09T13:32:31;8.68;;;4.18;;
54849;SDS011;47660;51.334;12.396;2023-10-09T13:35:00;10.27;;;4.75;;
54849;SDS011;47660;51.334;12.396;2023-10-09T13:37:29;7.25;;;4.30;;
54849;SDS011;47660;51.334;12.396;2023-10-09T13:39:57;8.85;;;4.38;;
54849;SDS011;47660;51.334;12.396;2023-10-09T13:42:22;11.18;;;5.20;;
54849;SDS011;47660;51.334;12.396;2023-10-09T13:44:51;10.40;;;4.50;;
54849;SDS011;47660;51.334;12.396;2023-10-09T13:47:20;12.98;;;5.35;;
54849;SDS011;47660;51.334;12.396;2023-10-09T13:49:48;10.05;;;4.55;;
54849;SDS011;47660;51.334;12.396;2023-10-09T13:52:16;13.68;;;5.35;;
54849;SDS011;47660;51.334;12.396;2023-10-09T13:54:43;8.98;;;4.68;;
54849;SDS011;47660;51.334;12.396;2023-10-09T13:57:13;8.40;;;4.75;;
54849;SDS011;47660;51.334;12.396;2023-10-09T13:59:40;12.10;;;4.82;;
54849;SDS011;47660;51.334;12.396;2023-10-09T14:02:08;9.02;;;4.63;;
54849;SDS011;47660;51.334;12.396;2023-10-09T14:04:42;8.60;;;5.22;;
54849;SDS011;47660;51.334;12.396;2023-10-09T14:07:07;11.77;;;5.68;;
54849;SDS011;47660;51.334;12.396;2023-10-09T14:09:33;13.25;;;4.88;;
54849;SDS011;47660;51.334;12.396;2023-10-09T14:14:47;8.52;;;4.85;;
54849;SDS011;47660;51.334;12.396;2023-10-09T14:17:13;12.70;;;5.13;;
54849;SDS011;47660;51.334;12.396;2023-10-09T14:19:48;10.40;;;4.87;;
54849;SDS011;47660;51.334;12.396;2023-10-09T14:22:20;10.20;;;5.28;;
54849;SDS011;47660;51.334;12.396;2023-10-09T14:24:46;9.38;;;5.18;;
54849;SDS011;47660;51.334;12.396;2023-10-09T14:27:16;11.63;;;4.95;;
54849;SDS011;47660;51.334;12.396;2023-10-09T14:29:45;9.85;;;5.53;;
54849;SDS011;47660;51.334;12.396;2023-10-09T14:32:13;10.50;;;4.85;;
54849;SDS011;47660;51.334;12.396;2023-10-09T14:34:39;10.07;;;4.88;;
54849;SDS011;47660;51.334;12.396;2023-10-09T14:37:11;15.32;;;5.95;;
54849;SDS011;47660;51.334;12.396;2023-10-09T14:39:37;11.13;;;5.05;;
54849;SDS011;47660;51.334;12.396;2023-10-09T14:42:04;11.15;;;4.97;;
54849;SDS011;47660;51.334;12.396;2023-10-09T14:44:34;11.93;;;5.03;;
54849;SDS011;47660;51.334;12.396;2023-10-09T14:47:02;9.23;;;4.95;;
54849;SDS011;47660;51.334;12.396;2023-10-09T14:49:30;11.15;;;5.82;;
54849;SDS011;47660;51.334;12.396;2023-10-09T14:52:00;10.15;;;4.60;;
54849;SDS011;47660;51.334;12.396;2023-10-09T14:54:26;11.77;;;5.35;;
54849;SDS011;47660;51.334;12.396;2023-10-09T14:56:52;11.20;;;4.82;;
54849;SDS011;47660;51.334;12.396;2023-10-09T14:59:19;8.95;;;4.78;;
54849;SDS011;47660;51.334;12.396;2023-10-09T15:01:47;9.73;;;4.65;;
54849;SDS011;47660;51.334;12.396;2023-10-09T15:04:14;11.63;;;5.13;;
54849;SDS011;47660;51.334;12.396;2023-10-09T15:06:40;13.35;;;5.50;;
54849;SDS011;47660;51.334;12.396;2023-10-09T15:09:06;9.68;;;5.30;;
54849;SDS011;47660;51.334;12.396;2023-10-09T15:11:34;10.60;;;5.25;;
54849;SDS011;47660;51.334;12.396;2023-10-09T15:14:02;9.73;;;5.25;;
54849;SDS011;47660;51.334;12.396;2023-10-09T15:16:29;11.40;;;5.32;;
54849;SDS011;47660;51.334;12.396;2023-10-09T15:18:55;12.80;;;5.18;;
54849;SDS011;47660;51.334;12.396;2023-10-09T15:21:22;12.32;;;5.03;;
54849;SDS011;47660;51.334;12.396;2023-10-09T15:23:55;12.40;;;6.18;;
54849;SDS011;47660;51.334;12.396;2023-10-09T15:26:21;10.18;;;5.40;;
54849;SDS011;47660;51.334;12.396;2023-10-09T15:28:49;12.65;;;5.57;;
54849;SDS011;47660;51.334;12.396;2023-10-09T15:31:15;9.25;;;5.38;;
54849;SDS011;47660;51.334;12.396;2023-10-09T15:33:41;12.75;;;5.70;;
54849;SDS011;47660;51.334;12.396;2023-10-09T15:36:11;12.52;;;6.03;;
54849;SDS011;47660;51.334;12.396;2023-10-09T15:38:37;11.75;;;5.40;;
54849;SDS011;47660;51.334;12.396;2023-10-09T15:41:03;10.88;;;4.90;;
54849;SDS011;47660;51.334;12.396;2023-10-09T15:43:31;10.13;;;5.85;;
54849;SDS011;47660;51.334;12.396;2023-10-09T15:45:57;11.35;;;5.57;;
54849;SDS011;47660;51.334;12.396;2023-10-09T15:48:23;12.80;;;4.90;;
54849;SDS011;47660;51.334;12.396;2023-10-09T15:50:48;9.48;;;5.43;;
54849;SDS011;47660;51.334;12.396;2023-10-09T15:53:20;8.55;;;4.75;;
54849;SDS011;47660;51.334;12.396;2023-10-09T15:55:46;8.20;;;4.97;;